ADDS METAR Data

Data at: 1832 UTC 20 Jul 2018

METAR for:KBOS (Boston/Logan Intl, MA, US)
Text:KBOS 201754Z 11012KT 10SM FEW050 25/15 A3017 RMK AO2 SLP216 T02500150 10261 20222 58004
Temperature: 25.0°C ( 77°F)
Dewpoint: 15.0°C ( 59°F) [RH = 54%]
Pressure (altimeter):30.17 inches Hg (1021.8 mb) [Sea level pressure: 1021.6 mb]
Winds:from the ESE (110 degrees) at 14 MPH (12 knots; 6.2 m/s)
Visibility:10 or more sm (16+ km)
Ceiling:at least 12,000 feet AGL
Clouds: few clouds at 5000 feet AGL